Terminal Aerodrome Forecast
Issued by NWS

Home | Current Version | Previous Version | Text Only | Print | Product List | Glossary On
Versions: 1 2 3 4 5 6 7 8 9 10 11 12
000
FTUS46 KHNX 191142
TAFFAT
TAF
KFAT 191142Z 1912/2012 31011KT P6SM BKN080
     FM191900 32011G15KT P6SM SCT050 BKN120
     FM200300 32005KT P6SM SKC=

USA.gov is the U.S. government's official web portal to all federal, state and local government web resources and services.